Elroy, Wisconsin
Current Conditions -  °F | °C
As of 5:58 AM on Friday 28 Nov 2014 (Local Time) from KVOK Reporting Station
Overcast Overcast  
Wind Chill: -1°   Ceiling: 6000
Heat Index: 12°   Visibility: 10mi
Dew Point: 11°   Wind: 9mph
Humidity: 96%   Direction: 140°SE
Pressure: 30.16"   Gusts: NA
Location:  43.74°N, 90.27°W
Report Text: KVOK 281158Z AUTO 14008KT 10SM FEW039 OVC060 M11/M12 A3016 RMK AO2 SNE1115 SLP238 P0000 60000 T11121117 11112 21136 57041
Loading
Personal Weather Stations






























Interactive Weather Map New forecast layout! Learn more

10-Day Weather Forecast

Advertisements
Track Severe Weather on mobile